Arcadia, South Carolina
Current Conditions -  °F | °C
As of 7:55 PM on Saturday 22 Nov 2014 (Local Time) from KSPA Reporting Station
Broken Clouds Broken Clouds  
Wind Chill:   Ceiling: 4000
Heat Index:   Visibility: 10mi
Dew Point: -2°   Wind: 0mph
Humidity: 53%   Direction: NA
Pressure: 30.33"   Gusts: NA
Location:  34.96°N, 81.99°W
Report Text: KSPA 230055Z AUTO 00000KT 10SM BKN040 07/M02 A3033 RMK AO2
Loading
Personal Weather Stations






























Interactive Weather Map New forecast layout! Learn more

10-Day Weather Forecast

Advertisements
Track Severe Weather on mobile